createdAt,value
2022-10-28T00:01:05.115Z,94855.72
2022-10-28T00:03:32.003Z,94852.75
2022-10-28T00:06:19.460Z,94850.44
2022-10-28T00:08:46.378Z,94855.56
2022-10-28T00:11:21.565Z,94857.47
2022-10-28T00:13:49.015Z,94852.34
2022-10-28T00:16:21.198Z,94854.63
2022-10-28T00:18:48.444Z,94850.44
2022-10-28T00:21:17.870Z,94851.25
2022-10-28T00:23:45.107Z,94851.63
2022-10-28T00:26:17.661Z,94845.56
2022-10-28T00:28:57.330Z,94853.69
2022-10-28T00:31:25.644Z,94845.13
2022-10-28T00:33:52.479Z,94845.59
2022-10-28T00:36:22.069Z,94842.47
2022-10-28T00:38:50.150Z,94841.47
2022-10-28T00:41:20.214Z,94849.84
2022-10-28T00:43:50.155Z,94844.97
2022-10-28T00:46:37.396Z,94841.03
2022-10-28T00:49:14.607Z,94837.56
2022-10-28T00:51:41.885Z,94838.69
2022-10-28T00:54:08.825Z,94843.34
2022-10-28T00:56:39.159Z,94838.78
2022-10-28T00:59:09.107Z,94846.22
2022-10-28T01:01:36.013Z,94838.09
2022-10-28T01:04:21.667Z,94840.47
2022-10-28T01:06:48.931Z,94836.16
2022-10-28T01:09:15.779Z,94844.09
2022-10-28T01:11:49.133Z,94847.50
2022-10-28T01:14:20.755Z,94849.50
2022-10-28T01:17:13.253Z,94846.00
2022-10-28T01:19:46.008Z,94836.09
2022-10-28T01:22:25.370Z,94838.41
2022-10-28T01:25:04.170Z,94832.25
2022-10-28T01:28:08.273Z,94842.19
2022-10-28T01:30:49.908Z,94839.47
2022-10-28T01:33:31.157Z,94837.63
2022-10-28T01:36:04.436Z,94837.97
2022-10-28T01:39:03.717Z,94844.38
2022-10-28T01:41:46.986Z,94841.34
2022-10-28T01:44:29.738Z,94837.75
2022-10-28T01:47:34.966Z,94836.56
2022-10-28T01:50:34.072Z,94835.53
2022-10-28T01:53:04.529Z,94838.41
2022-10-28T01:55:35.891Z,94844.97
2022-10-28T01:58:03.543Z,94843.22
2022-10-28T02:00:31.880Z,94849.84
2022-10-28T02:02:58.893Z,94848.91
2022-10-28T02:05:51.561Z,94848.34
2022-10-28T02:08:18.295Z,94852.53
2022-10-28T02:11:23.904Z,94856.59
2022-10-28T02:14:11.857Z,94855.66
2022-10-28T02:16:43.076Z,94846.59
2022-10-28T02:19:24.695Z,94843.44
2022-10-28T02:22:03.448Z,94850.22
2022-10-28T02:24:45.377Z,94844.63
2022-10-28T02:27:30.503Z,94846.47
2022-10-28T02:30:37.713Z,94842.97
2022-10-28T02:33:07.016Z,94848.56
2022-10-28T02:35:39.103Z,94848.09
2022-10-28T02:38:11.827Z,94854.16
2022-10-28T02:40:40.090Z,94853.91
2022-10-28T02:43:09.214Z,94859.03
2022-10-28T02:45:40.941Z,94859.84
2022-10-28T02:48:11.290Z,94856.81
2022-10-28T02:50:41.529Z,94861.25
2022-10-28T02:53:33.023Z,94866.66
2022-10-28T02:56:00.843Z,94858.19
2022-10-28T02:58:27.828Z,94855.75
2022-10-28T03:00:54.619Z,94861.44
2022-10-28T03:03:21.400Z,94863.41
2022-10-28T03:05:48.070Z,94862.84
2022-10-28T03:08:14.804Z,94855.63
2022-10-28T03:10:41.564Z,94855.38
2022-10-28T03:13:08.316Z,94863.63
2022-10-28T03:15:35.034Z,94855.94
2022-10-28T03:18:01.751Z,94856.63
2022-10-28T03:20:28.391Z,94852.34
2022-10-28T03:22:55.450Z,94851.75
2022-10-28T03:25:22.413Z,94855.69
2022-10-28T03:27:49.227Z,94855.69
2022-10-28T03:30:18.472Z,94858.03
2022-10-28T03:32:45.210Z,94859.06
2022-10-28T03:35:12.151Z,94862.28
2022-10-28T03:37:44.508Z,94864.25
2022-10-28T03:40:12.027Z,94862.09
2022-10-28T03:42:41.330Z,94864.63
2022-10-28T03:45:09.301Z,94869.28
2022-10-28T03:47:36.254Z,94866.91
2022-10-28T03:50:03.241Z,94867.84
2022-10-28T03:52:30.068Z,94863.41
2022-10-28T03:54:56.794Z,94856.91
2022-10-28T03:57:23.600Z,94858.50
2022-10-28T03:59:50.324Z,94859.09
2022-10-28T04:02:17.223Z,94860.06
2022-10-28T04:04:44.080Z,94853.69
2022-10-28T04:07:10.805Z,94856.59
2022-10-28T04:09:37.631Z,94864.38
2022-10-28T04:14:32.428Z,94873.09
2022-10-28T04:16:59.175Z,94864.16
2022-10-28T04:19:25.939Z,94866.81
2022-10-28T04:21:52.635Z,94867.84
2022-10-28T04:24:19.530Z,94869.66
2022-10-28T04:26:46.330Z,94867.19
2022-10-28T04:29:13.025Z,94870.81
2022-10-28T04:31:39.750Z,94868.97
2022-10-28T04:34:06.528Z,94873.03
2022-10-28T04:36:33.270Z,94869.22
2022-10-28T04:38:59.991Z,94861.41
2022-10-28T04:41:26.751Z,94863.09
2022-10-28T04:43:56.105Z,94860.47
2022-10-28T04:46:22.839Z,94859.69
2022-10-28T04:48:49.535Z,94856.91
2022-10-28T04:51:16.336Z,94859.44
2022-10-28T04:53:43.097Z,94856.41
2022-10-28T04:56:10.031Z,94860.16
2022-10-28T04:58:36.691Z,94859.94
2022-10-28T05:01:10.333Z,94864.22
2022-10-28T05:03:37.156Z,94861.34
2022-10-28T05:06:04.080Z,94866.47
2022-10-28T05:08:30.809Z,94869.59
2022-10-28T05:10:57.578Z,94866.72
2022-10-28T05:13:24.341Z,94870.00
2022-10-28T05:15:51.274Z,94863.38
2022-10-28T05:18:18.122Z,94865.69
2022-10-28T05:20:45.183Z,94872.31
2022-10-28T05:23:12.011Z,94879.88
2022-10-28T05:25:38.755Z,94876.41
2022-10-28T05:28:05.515Z,94881.63
2022-10-28T05:30:32.330Z,94880.59
2022-10-28T05:33:01.492Z,94882.94
2022-10-28T05:35:29.650Z,94885.38
2022-10-28T05:37:57.094Z,94887.59
2022-10-28T05:40:24.028Z,94887.84
2022-10-28T05:42:50.942Z,94888.72
2022-10-28T05:45:18.061Z,94895.47
2022-10-28T05:47:46.145Z,94896.44
2022-10-28T05:50:14.936Z,94894.22
2022-10-28T05:52:49.199Z,94901.94
2022-10-28T05:55:19.439Z,94904.63
2022-10-28T05:57:47.440Z,94903.38
2022-10-28T06:00:15.203Z,94899.19
2022-10-28T06:02:42.305Z,94904.53
2022-10-28T06:05:10.263Z,94901.41
2022-10-28T06:07:37.891Z,94904.91
2022-10-28T06:10:06.095Z,94913.16
2022-10-28T06:12:31.272Z,94918.69
2022-10-28T06:14:58.077Z,94917.47
2022-10-28T06:17:25.053Z,94919.91
2022-10-28T06:19:51.890Z,94929.78
2022-10-28T06:22:18.614Z,94929.88
2022-10-28T06:24:45.339Z,94935.78
2022-10-28T06:27:12.084Z,94929.41
2022-10-28T06:29:38.917Z,94945.13
2022-10-28T06:32:08.576Z,94936.66
2022-10-28T06:34:35.534Z,94937.66
2022-10-28T06:37:02.262Z,94944.00
2022-10-28T06:39:29.038Z,94937.34
2022-10-28T06:41:55.781Z,94937.44
2022-10-28T06:44:22.511Z,94928.91
2022-10-28T06:46:50.736Z,94926.16
2022-10-28T06:49:17.430Z,94927.44
2022-10-28T06:51:44.170Z,94929.38
2022-10-28T06:54:10.913Z,94928.00
2022-10-28T06:56:37.644Z,94924.66
2022-10-28T06:59:04.450Z,94920.03
2022-10-28T07:01:31.226Z,94923.31
2022-10-28T07:03:58.052Z,94922.56
2022-10-28T07:06:24.790Z,94920.19
2022-10-28T07:08:51.939Z,94930.28
2022-10-28T07:11:19.042Z,94927.44
2022-10-28T07:13:48.876Z,94923.69
2022-10-28T07:16:15.864Z,94923.81
2022-10-28T07:18:42.627Z,94925.81
2022-10-28T07:21:09.364Z,94933.09
2022-10-28T07:23:36.148Z,94935.50
2022-10-28T07:26:03.071Z,94931.28
2022-10-28T07:28:29.843Z,94927.88
2022-10-28T07:31:03.680Z,94938.97
2022-10-28T07:33:30.953Z,94932.19
2022-10-28T07:35:57.665Z,94932.97
2022-10-28T07:38:24.445Z,94928.66
2022-10-28T07:40:51.693Z,94934.72
2022-10-28T07:43:18.487Z,94926.03
2022-10-28T07:45:45.324Z,94927.56
2022-10-28T07:48:12.242Z,94929.69
2022-10-28T07:50:41.113Z,94927.06
2022-10-28T07:53:07.948Z,94926.84
2022-10-28T07:55:34.802Z,94924.34
2022-10-28T07:58:01.550Z,94919.59
2022-10-28T08:00:28.317Z,94919.16
2022-10-28T08:02:55.056Z,94922.97
2022-10-28T08:05:22.518Z,94916.78
2022-10-28T08:07:49.251Z,94924.22
2022-10-28T08:10:16.025Z,94923.16
2022-10-28T08:12:42.919Z,94920.50
2022-10-28T08:15:10.664Z,94921.13
2022-10-28T08:17:37.530Z,94922.41
2022-10-28T08:20:05.548Z,94927.78
2022-10-28T08:22:32.230Z,94928.66
2022-10-28T08:24:58.952Z,94929.34
2022-10-28T08:27:25.645Z,94931.25
2022-10-28T08:29:54.112Z,94936.56
2022-10-28T08:32:20.842Z,94932.91
2022-10-28T08:34:47.608Z,94934.38
2022-10-28T08:37:16.262Z,94927.25
2022-10-28T08:39:43.216Z,94934.75
2022-10-28T08:42:48.405Z,94934.03
2022-10-28T08:45:24.471Z,94933.91
2022-10-28T08:48:26.838Z,94929.19
2022-10-28T08:51:06.833Z,94924.88
2022-10-28T08:53:45.654Z,94922.09
2022-10-28T08:56:34.393Z,94911.44
2022-10-28T08:59:03.470Z,94917.88
2022-10-28T09:01:51.414Z,94914.69
2022-10-28T09:04:36.307Z,94917.28
2022-10-28T09:07:03.586Z,94908.41
2022-10-28T09:09:30.556Z,94909.97
2022-10-28T09:12:18.615Z,94900.88
2022-10-28T09:15:06.153Z,94902.03
2022-10-28T09:17:45.374Z,94902.56
2022-10-28T09:20:19.608Z,94896.25
2022-10-28T09:22:58.969Z,94901.13
2022-10-28T09:25:35.614Z,94894.09
2022-10-28T09:28:21.049Z,94895.00
2022-10-28T09:31:18.559Z,94888.28
2022-10-28T09:33:57.802Z,94883.09
2022-10-28T09:36:41.263Z,94880.09
2022-10-28T09:39:25.381Z,94878.25
2022-10-28T09:41:55.242Z,94874.97
2022-10-28T09:44:45.966Z,94867.28
2022-10-28T09:47:16.985Z,94860.44
2022-10-28T09:49:44.153Z,94853.38
2022-10-28T09:52:19.401Z,94855.56
2022-10-28T09:54:51.346Z,94841.81
2022-10-28T09:57:18.357Z,94847.69
2022-10-28T09:59:45.282Z,94844.00
2022-10-28T10:02:31.074Z,94838.31
2022-10-28T10:04:59.004Z,94845.53
2022-10-28T10:07:38.942Z,94841.31
2022-10-28T10:10:18.129Z,94843.78
2022-10-28T10:12:47.413Z,94840.97
2022-10-28T10:15:27.510Z,94833.50
2022-10-28T10:17:55.788Z,94838.53
2022-10-28T10:20:22.497Z,94838.47
2022-10-28T10:22:49.771Z,94829.38
2022-10-28T10:25:19.683Z,94827.63
2022-10-28T10:28:01.718Z,94823.59
2022-10-28T10:30:46.845Z,94820.03
2022-10-28T10:33:26.459Z,94820.91
2022-10-28T10:35:59.919Z,94823.63
2022-10-28T10:38:27.847Z,94820.50
2022-10-28T10:40:54.828Z,94816.59
2022-10-28T10:43:24.544Z,94813.25
2022-10-28T10:45:57.374Z,94819.59
2022-10-28T10:48:24.154Z,94807.97
2022-10-28T10:50:51.307Z,94803.84
2022-10-28T10:53:38.309Z,94806.56
2022-10-28T10:56:10.759Z,94802.47
2022-10-28T10:58:40.082Z,94798.88
2022-10-28T11:01:07.906Z,94805.63
2022-10-28T11:03:49.770Z,94799.50
2022-10-28T11:06:39.414Z,94792.31
2022-10-28T11:09:18.065Z,94786.13
2022-10-28T11:11:45.134Z,94786.13
2022-10-28T11:14:13.428Z,94781.25
2022-10-28T11:16:47.693Z,94788.50
2022-10-28T11:19:24.657Z,94785.38
2022-10-28T11:22:26.524Z,94787.25
2022-10-28T11:25:09.088Z,94785.09
2022-10-28T11:27:56.554Z,94781.38
2022-10-28T11:30:38.922Z,94776.84
2022-10-28T11:33:36.952Z,94771.22
2022-10-28T11:36:22.756Z,94763.47
2022-10-28T11:39:14.219Z,94766.31
2022-10-28T11:42:17.734Z,94762.09
2022-10-28T11:44:56.272Z,94755.06
2022-10-28T11:47:44.388Z,94758.91
2022-10-28T11:50:25.910Z,94753.69
2022-10-28T11:53:27.937Z,94753.03
2022-10-28T11:56:03.467Z,94751.84
2022-10-28T11:59:09.613Z,94749.09
2022-10-28T12:02:08.772Z,94746.44
2022-10-28T12:04:47.820Z,94744.94
2022-10-28T12:07:52.334Z,94741.78
2022-10-28T12:10:30.507Z,94740.06
2022-10-28T12:13:13.074Z,94737.41
2022-10-28T12:15:58.017Z,94739.63
2022-10-28T12:18:54.025Z,94734.38
2022-10-28T12:21:28.025Z,94741.81
2022-10-28T12:23:57.376Z,94734.44
2022-10-28T12:26:38.388Z,94738.16
2022-10-28T12:29:10.545Z,94738.94
2022-10-28T12:31:44.986Z,94730.81
2022-10-28T12:34:18.706Z,94731.78
2022-10-28T12:36:46.863Z,94727.31
2022-10-28T12:39:24.606Z,94730.31
2022-10-28T12:41:57.429Z,94729.22
2022-10-28T12:44:25.521Z,94722.31
2022-10-28T12:47:04.449Z,94726.56
2022-10-28T12:49:37.303Z,94727.13
2022-10-28T12:52:31.454Z,94722.56
2022-10-28T12:55:02.581Z,94721.78
2022-10-28T12:57:30.954Z,94721.47
2022-10-28T13:00:16.026Z,94714.66
2022-10-28T13:03:04.729Z,94715.75
2022-10-28T13:05:42.412Z,94716.41
2022-10-28T13:08:46.294Z,94715.75
2022-10-28T13:11:50.457Z,94712.66
2022-10-28T13:14:40.223Z,94710.91
2022-10-28T13:17:28.424Z,94710.09
2022-10-28T13:20:19.530Z,94713.00
2022-10-28T13:23:01.938Z,94703.16
2022-10-28T13:25:57.181Z,94710.81
2022-10-28T13:28:33.133Z,94715.28
2022-10-28T13:31:03.050Z,94712.91
2022-10-28T13:33:30.854Z,94710.44
2022-10-28T13:36:18.901Z,94709.72
2022-10-28T13:38:53.788Z,94709.56
2022-10-28T13:41:43.347Z,94707.59
2022-10-28T13:44:25.193Z,94705.53
2022-10-28T13:47:15.296Z,94708.53
2022-10-28T13:50:10.047Z,94703.47
2022-10-28T13:52:44.885Z,94701.44
2022-10-28T13:55:22.635Z,94702.66
2022-10-28T13:57:52.189Z,94697.63
2022-10-28T14:00:19.200Z,94701.78
2022-10-28T14:02:56.079Z,94707.53
2022-10-28T14:05:46.061Z,94712.34
2022-10-28T14:08:19.979Z,94706.47
2022-10-28T14:10:58.643Z,94709.00
2022-10-28T14:13:25.931Z,94700.66
2022-10-28T14:16:14.286Z,94701.16
2022-10-28T14:18:44.629Z,94700.66
2022-10-28T14:21:12.166Z,94704.13
2022-10-28T14:23:44.912Z,94699.53
2022-10-28T14:26:11.693Z,94697.97
2022-10-28T14:28:38.350Z,94701.53
2022-10-28T14:31:08.213Z,94699.72
2022-10-28T14:33:40.354Z,94699.84
2022-10-28T14:36:19.502Z,94689.16
2022-10-28T14:39:24.252Z,94697.38
2022-10-28T14:42:15.217Z,94695.44
2022-10-28T14:44:47.996Z,94693.38
2022-10-28T14:47:33.461Z,94699.19
2022-10-28T14:50:16.715Z,94700.47
2022-10-28T14:52:44.615Z,94693.25
2022-10-28T14:55:27.668Z,94691.13
2022-10-28T14:57:54.639Z,94692.72
2022-10-28T15:00:25.956Z,94691.53
2022-10-28T15:02:52.783Z,94686.56
2022-10-28T15:05:21.430Z,94690.53
2022-10-28T15:07:48.669Z,94691.47
2022-10-28T15:10:22.371Z,94691.44
2022-10-28T15:12:49.534Z,94692.69
2022-10-28T15:15:24.441Z,94688.84
2022-10-28T15:17:51.348Z,94684.72
2022-10-28T15:20:23.573Z,94686.22
2022-10-28T15:22:51.631Z,94685.94
2022-10-28T15:25:19.418Z,94694.88
2022-10-28T15:27:47.575Z,94687.00
2022-10-28T15:30:17.183Z,94685.22
2022-10-28T15:32:43.971Z,94684.41
2022-10-28T15:35:35.627Z,94694.81
2022-10-28T15:38:03.551Z,94693.19
2022-10-28T15:40:34.854Z,94692.53
2022-10-28T15:43:05.151Z,94690.09
2022-10-28T15:45:38.304Z,94696.13
2022-10-28T15:48:13.764Z,94702.28
2022-10-28T15:50:40.993Z,94699.00
2022-10-28T15:53:08.465Z,94698.69
2022-10-28T15:55:41.350Z,94697.69
2022-10-28T15:58:19.411Z,94703.34
2022-10-28T16:00:57.413Z,94705.22
2022-10-28T16:03:45.122Z,94705.22
2022-10-28T16:06:31.758Z,94710.91
2022-10-28T16:09:05.694Z,94711.53
2022-10-28T16:11:35.806Z,94719.44
2022-10-28T16:14:28.727Z,94723.66
2022-10-28T16:16:56.950Z,94722.19
2022-10-28T16:19:37.930Z,94725.50
2022-10-28T16:22:04.668Z,94737.75
2022-10-28T16:24:31.487Z,94740.78
2022-10-28T16:27:25.871Z,94740.41
2022-10-28T16:29:52.947Z,94740.03
2022-10-28T16:32:36.909Z,94738.41
2022-10-28T16:35:04.538Z,94740.72
2022-10-28T16:37:32.966Z,94744.03
2022-10-28T16:39:59.913Z,94745.09
2022-10-28T16:42:26.871Z,94740.00
2022-10-28T16:44:53.754Z,94739.50
2022-10-28T16:47:22.542Z,94745.84
2022-10-28T16:49:52.631Z,94750.19
2022-10-28T16:52:25.227Z,94747.09
2022-10-28T16:54:52.380Z,94750.41
2022-10-28T16:57:20.032Z,94750.94
2022-10-28T16:59:47.177Z,94755.13
2022-10-28T17:02:16.158Z,94752.34
2022-10-28T17:04:42.951Z,94757.28
2022-10-28T17:07:13.560Z,94760.69
2022-10-28T17:09:40.818Z,94753.06
2022-10-28T17:12:10.724Z,94754.69
2022-10-28T17:14:37.374Z,94753.84
2022-10-28T17:17:04.127Z,94755.91
2022-10-28T17:19:30.877Z,94759.44
2022-10-28T17:21:57.655Z,94753.75
2022-10-28T17:24:24.494Z,94762.38
2022-10-28T17:26:52.177Z,94754.25
2022-10-28T17:29:19.238Z,94756.03
2022-10-28T17:31:45.963Z,94763.25
2022-10-28T17:34:12.839Z,94767.97
2022-10-28T17:36:39.824Z,94765.00
2022-10-28T17:39:06.719Z,94767.13
2022-10-28T17:41:33.497Z,94771.00
2022-10-28T17:44:00.395Z,94770.34
2022-10-28T17:46:27.337Z,94767.09
2022-10-28T17:48:54.148Z,94766.44
2022-10-28T17:51:22.347Z,94758.88
2022-10-28T17:53:54.550Z,94755.56
2022-10-28T17:56:21.386Z,94759.13
2022-10-28T17:58:48.175Z,94764.28
2022-10-28T18:01:15.334Z,94761.28
2022-10-28T18:03:42.138Z,94757.34
2022-10-28T18:06:11.580Z,94754.91
2022-10-28T18:08:40.481Z,94767.81
2022-10-28T18:11:13.575Z,94759.56
2022-10-28T18:13:52.864Z,94762.75
2022-10-28T18:16:38.577Z,94763.41
2022-10-28T18:19:13.928Z,94751.66
2022-10-28T18:21:40.702Z,94753.69
2022-10-28T18:24:07.920Z,94750.34
2022-10-28T18:26:36.557Z,94753.59
2022-10-28T18:29:04.820Z,94752.13
2022-10-28T18:31:34.622Z,94753.75
2022-10-28T18:34:01.998Z,94754.16
2022-10-28T18:36:34.416Z,94747.00
2022-10-28T18:39:05.559Z,94757.44
2022-10-28T18:41:34.492Z,94753.53
2022-10-28T18:44:03.927Z,94755.56
2022-10-28T18:46:33.450Z,94758.94
2022-10-28T18:51:33.509Z,94758.53
2022-10-28T18:54:00.176Z,94760.28
2022-10-28T18:56:30.687Z,94768.41
2022-10-28T18:58:58.569Z,94770.44
2022-10-28T19:01:28.266Z,94771.28
2022-10-28T19:04:00.583Z,94765.22
2022-10-28T19:06:35.338Z,94765.34
2022-10-28T19:09:03.796Z,94767.63
2022-10-28T19:11:31.589Z,94766.69
2022-10-28T19:13:59.783Z,94771.03
2022-10-28T19:16:27.362Z,94764.13
2022-10-28T19:18:55.571Z,94760.91
2022-10-28T19:21:22.392Z,94767.09
2022-10-28T19:23:49.532Z,94767.34
2022-10-28T19:26:16.508Z,94770.97
2022-10-28T19:28:45.144Z,94767.25
2022-10-28T19:31:14.353Z,94764.38
2022-10-28T19:33:43.198Z,94775.66
2022-10-28T19:36:14.796Z,94764.78
2022-10-28T19:38:41.582Z,94773.00
2022-10-28T19:41:10.586Z,94780.06
2022-10-28T19:43:37.491Z,94782.81
2022-10-28T19:46:16.693Z,94788.53
2022-10-28T19:48:46.163Z,94789.50
2022-10-28T19:51:15.135Z,94794.00
2022-10-28T19:53:47.368Z,94793.91
2022-10-28T19:58:53.330Z,94792.69
2022-10-28T20:01:24.419Z,94795.69
2022-10-28T20:03:52.088Z,94798.91
2022-10-28T20:06:20.558Z,94797.84
2022-10-28T20:08:48.109Z,94796.22
2022-10-28T20:11:26.238Z,94803.41
2022-10-28T20:13:58.592Z,94802.59
2022-10-28T20:16:25.773Z,94807.72
2022-10-28T20:18:54.733Z,94801.38
2022-10-28T20:21:23.115Z,94804.06
2022-10-28T20:26:17.949Z,94794.44
2022-10-28T20:28:44.675Z,94796.47
2022-10-28T20:31:16.544Z,94791.56
2022-10-28T20:33:44.833Z,94802.38
2022-10-28T20:36:31.108Z,94795.50
2022-10-28T20:38:59.572Z,94801.72
2022-10-28T20:41:28.643Z,94800.19
2022-10-28T20:43:55.648Z,94803.13
2022-10-28T20:46:23.615Z,94808.66
2022-10-28T20:48:50.778Z,94812.03
2022-10-28T20:51:17.629Z,94812.84
2022-10-28T20:53:44.371Z,94805.28
2022-10-28T20:56:23.923Z,94813.56
2022-10-28T20:58:51.202Z,94804.00
2022-10-28T21:01:26.378Z,94802.03
2022-10-28T21:03:54.985Z,94809.31
2022-10-28T21:06:21.652Z,94803.88
2022-10-28T21:08:48.453Z,94809.81
2022-10-28T21:11:16.695Z,94791.41
2022-10-28T21:13:44.161Z,94806.13
2022-10-28T21:16:12.645Z,94802.75
2022-10-28T21:18:39.434Z,94793.31
2022-10-28T21:21:06.700Z,94794.22
2022-10-28T21:23:33.565Z,94796.47
2022-10-28T21:26:02.051Z,94793.34
2022-10-28T21:28:28.999Z,94793.47
2022-10-28T21:31:02.560Z,94789.19
2022-10-28T21:33:29.954Z,94793.72
2022-10-28T21:35:57.873Z,94795.41
2022-10-28T21:38:25.646Z,94793.78
2022-10-28T21:41:19.604Z,94793.28
2022-10-28T21:43:49.075Z,94798.69
2022-10-28T21:46:19.935Z,94792.97
2022-10-28T21:48:47.143Z,94791.47
2022-10-28T21:51:15.760Z,94792.53
2022-10-28T21:53:43.827Z,94788.47
2022-10-28T21:56:18.026Z,94789.97
2022-10-28T21:58:45.919Z,94794.25
2022-10-28T22:01:32.542Z,94792.19
2022-10-28T22:03:59.522Z,94802.56
2022-10-28T22:06:26.339Z,94799.44
2022-10-28T22:08:54.470Z,94803.63
2022-10-28T22:11:23.303Z,94792.22
2022-10-28T22:13:57.108Z,94792.59
2022-10-28T22:16:24.255Z,94794.22
2022-10-28T22:18:51.082Z,94786.53
2022-10-28T22:21:22.759Z,94792.22
2022-10-28T22:23:49.960Z,94790.84
2022-10-28T22:26:19.198Z,94787.72
2022-10-28T22:28:46.097Z,94782.41
2022-10-28T22:31:20.937Z,94788.22
2022-10-28T22:33:48.260Z,94783.44
2022-10-28T22:36:17.343Z,94788.25
2022-10-28T22:38:44.644Z,94786.88
2022-10-28T22:41:17.553Z,94789.78
2022-10-28T22:43:46.169Z,94786.06
2022-10-28T22:46:15.009Z,94784.69
2022-10-28T22:48:41.905Z,94789.34
2022-10-28T22:51:11.891Z,94788.41
2022-10-28T22:53:40.692Z,94784.94
2022-10-28T22:56:08.710Z,94776.88
2022-10-28T22:58:35.540Z,94783.53
2022-10-28T23:01:16.478Z,94779.34
2022-10-28T23:03:45.329Z,94783.06
2022-10-28T23:06:13.665Z,94775.50
2022-10-28T23:08:42.219Z,94776.19
2022-10-28T23:11:09.307Z,94777.00
2022-10-28T23:16:09.093Z,94785.28
2022-10-28T23:18:36.710Z,94783.06
2022-10-28T23:21:26.894Z,94787.38
2022-10-28T23:23:58.614Z,94786.44
2022-10-28T23:26:27.077Z,94788.03
2022-10-28T23:28:55.542Z,94785.84
2022-10-28T23:31:23.030Z,94783.66
2022-10-28T23:33:50.274Z,94785.25
2022-10-28T23:36:17.378Z,94774.78
2022-10-28T23:38:44.207Z,94779.66
2022-10-28T23:41:15.427Z,94776.75
2022-10-28T23:43:42.928Z,94789.09
2022-10-28T23:46:10.304Z,94778.28
2022-10-28T23:48:38.544Z,94770.13
2022-10-28T23:51:05.455Z,94779.06
2022-10-28T23:53:32.189Z,94768.69
2022-10-28T23:55:58.941Z,94772.41
2022-10-28T23:58:26.212Z,94771.13
